sensor_id;sensor_type;location;lat;lon;timestamp;P1;durP1;ratioP1;P2;durP2;ratioP2
74335;SDS011;62755;-33.398;-70.572;2023-05-10T00:01:46;81.40;;;32.65;;
74335;SDS011;62755;-33.398;-70.572;2023-05-10T00:04:36;95.22;;;34.35;;
74335;SDS011;62755;-33.398;-70.572;2023-05-10T00:07:25;84.70;;;34.33;;
74335;SDS011;62755;-33.398;-70.572;2023-05-10T00:10:15;89.93;;;34.42;;
74335;SDS011;62755;-33.398;-70.572;2023-05-10T00:13:05;74.70;;;33.47;;
74335;SDS011;62755;-33.398;-70.572;2023-05-10T00:15:56;86.60;;;36.55;;
74335;SDS011;62755;-33.398;-70.572;2023-05-10T00:18:46;97.68;;;36.72;;
74335;SDS011;62755;-33.398;-70.572;2023-05-10T00:21:36;87.03;;;38.50;;
74335;SDS011;62755;-33.398;-70.572;2023-05-10T00:24:25;91.78;;;38.67;;
74335;SDS011;62755;-33.398;-70.572;2023-05-10T00:27:15;86.00;;;38.80;;
74335;SDS011;62755;-33.398;-70.572;2023-05-10T00:30:05;94.35;;;38.85;;
74335;SDS011;62755;-33.398;-70.572;2023-05-10T00:32:57;94.82;;;40.58;;
74335;SDS011;62755;-33.398;-70.572;2023-05-10T00:35:47;99.30;;;39.00;;
74335;SDS011;62755;-33.398;-70.572;2023-05-10T00:38:36;88.53;;;37.38;;
74335;SDS011;62755;-33.398;-70.572;2023-05-10T00:41:26;86.18;;;38.65;;
74335;SDS011;62755;-33.398;-70.572;2023-05-10T00:44:17;99.07;;;37.05;;
74335;SDS011;62755;-33.398;-70.572;2023-05-10T00:47:07;82.55;;;36.08;;
74335;SDS011;62755;-33.398;-70.572;2023-05-10T00:49:58;108.25;;;38.47;;
74335;SDS011;62755;-33.398;-70.572;2023-05-10T00:52:48;95.53;;;37.85;;
74335;SDS011;62755;-33.398;-70.572;2023-05-10T00:55:38;86.50;;;35.90;;
74335;SDS011;62755;-33.398;-70.572;2023-05-10T00:58:28;92.22;;;38.28;;
74335;SDS011;62755;-33.398;-70.572;2023-05-10T01:01:17;83.55;;;36.72;;
74335;SDS011;62755;-33.398;-70.572;2023-05-10T01:04:08;83.20;;;38.50;;
74335;SDS011;62755;-33.398;-70.572;2023-05-10T01:07:00;89.40;;;38.15;;
74335;SDS011;62755;-33.398;-70.572;2023-05-10T01:09:49;96.93;;;37.22;;
74335;SDS011;62755;-33.398;-70.572;2023-05-10T01:12:40;89.43;;;37.20;;
74335;SDS011;62755;-33.398;-70.572;2023-05-10T01:15:31;84.95;;;35.65;;
74335;SDS011;62755;-33.398;-70.572;2023-05-10T01:18:21;79.20;;;33.30;;
74335;SDS011;62755;-33.398;-70.572;2023-05-10T01:21:14;82.38;;;34.25;;
74335;SDS011;62755;-33.398;-70.572;2023-05-10T01:24:15;72.10;;;33.08;;
74335;SDS011;62755;-33.398;-70.572;2023-05-10T01:27:32;70.93;;;33.65;;
74335;SDS011;62755;-33.398;-70.572;2023-05-10T01:30:52;67.50;;;32.00;;
74335;SDS011;62755;-33.398;-70.572;2023-05-10T01:33:57;62.63;;;28.35;;
74335;SDS011;62755;-33.398;-70.572;2023-05-10T01:36:51;70.03;;;31.73;;
74335;SDS011;62755;-33.398;-70.572;2023-05-10T01:39:44;67.35;;;31.95;;
74335;SDS011;62755;-33.398;-70.572;2023-05-10T01:42:39;82.00;;;34.20;;
74335;SDS011;62755;-33.398;-70.572;2023-05-10T01:45:35;70.65;;;35.25;;
74335;SDS011;62755;-33.398;-70.572;2023-05-10T01:48:30;77.65;;;36.85;;
74335;SDS011;62755;-33.398;-70.572;2023-05-10T01:51:23;80.65;;;33.58;;
74335;SDS011;62755;-33.398;-70.572;2023-05-10T01:54:15;72.95;;;32.10;;
74335;SDS011;62755;-33.398;-70.572;2023-05-10T01:57:08;72.70;;;33.53;;
74335;SDS011;62755;-33.398;-70.572;2023-05-10T02:00:00;72.63;;;32.90;;
74335;SDS011;62755;-33.398;-70.572;2023-05-10T02:02:51;73.40;;;35.38;;
74335;SDS011;62755;-33.398;-70.572;2023-05-10T02:05:42;71.43;;;34.35;;
74335;SDS011;62755;-33.398;-70.572;2023-05-10T02:08:36;67.40;;;32.50;;
74335;SDS011;62755;-33.398;-70.572;2023-05-10T02:11:27;71.65;;;31.58;;
74335;SDS011;62755;-33.398;-70.572;2023-05-10T02:14:18;67.72;;;30.80;;
74335;SDS011;62755;-33.398;-70.572;2023-05-10T02:17:10;72.03;;;33.65;;
74335;SDS011;62755;-33.398;-70.572;2023-05-10T02:20:01;65.13;;;32.58;;
74335;SDS011;62755;-33.398;-70.572;2023-05-10T02:22:53;67.85;;;30.98;;
74335;SDS011;62755;-33.398;-70.572;2023-05-10T02:25:46;80.18;;;33.35;;
74335;SDS011;62755;-33.398;-70.572;2023-05-10T02:28:38;69.15;;;32.95;;
74335;SDS011;62755;-33.398;-70.572;2023-05-10T02:31:28;76.80;;;33.92;;
74335;SDS011;62755;-33.398;-70.572;2023-05-10T02:34:19;74.90;;;34.10;;
74335;SDS011;62755;-33.398;-70.572;2023-05-10T02:37:09;62.25;;;31.05;;
74335;SDS011;62755;-33.398;-70.572;2023-05-10T02:40:00;74.47;;;33.25;;
74335;SDS011;62755;-33.398;-70.572;2023-05-10T02:42:53;69.38;;;32.17;;
74335;SDS011;62755;-33.398;-70.572;2023-05-10T02:45:44;85.63;;;32.72;;
74335;SDS011;62755;-33.398;-70.572;2023-05-10T02:48:36;73.25;;;33.95;;
74335;SDS011;62755;-33.398;-70.572;2023-05-10T02:51:26;74.05;;;31.25;;
74335;SDS011;62755;-33.398;-70.572;2023-05-10T02:54:20;77.65;;;34.08;;
74335;SDS011;62755;-33.398;-70.572;2023-05-10T02:57:17;72.18;;;32.20;;
74335;SDS011;62755;-33.398;-70.572;2023-05-10T03:00:16;73.95;;;35.95;;
74335;SDS011;62755;-33.398;-70.572;2023-05-10T03:03:06;63.92;;;31.95;;
74335;SDS011;62755;-33.398;-70.572;2023-05-10T03:05:55;135.85;;;76.72;;
74335;SDS011;62755;-33.398;-70.572;2023-05-10T03:08:45;268.23;;;153.65;;
74335;SDS011;62755;-33.398;-70.572;2023-05-10T03:11:39;229.75;;;118.78;;
74335;SDS011;62755;-33.398;-70.572;2023-05-10T03:14:44;87.88;;;44.65;;
74335;SDS011;62755;-33.398;-70.572;2023-05-10T03:17:48;182.45;;;83.05;;
74335;SDS011;62755;-33.398;-70.572;2023-05-10T03:20:46;66.35;;;30.40;;
74335;SDS011;62755;-33.398;-70.572;2023-05-10T03:23:39;77.38;;;38.22;;
74335;SDS011;62755;-33.398;-70.572;2023-05-10T03:26:32;43.80;;;22.75;;
74335;SDS011;62755;-33.398;-70.572;2023-05-10T03:29:22;52.47;;;24.02;;
74335;SDS011;62755;-33.398;-70.572;2023-05-10T03:32:15;55.63;;;27.50;;
74335;SDS011;62755;-33.398;-70.572;2023-05-10T03:35:08;105.80;;;54.50;;
74335;SDS011;62755;-33.398;-70.572;2023-05-10T03:37:58;43.05;;;22.17;;
74335;SDS011;62755;-33.398;-70.572;2023-05-10T03:40:48;45.08;;;23.13;;
74335;SDS011;62755;-33.398;-70.572;2023-05-10T03:43:37;51.10;;;21.95;;
74335;SDS011;62755;-33.398;-70.572;2023-05-10T03:46:27;40.72;;;20.90;;
74335;SDS011;62755;-33.398;-70.572;2023-05-10T03:49:17;51.60;;;24.90;;
74335;SDS011;62755;-33.398;-70.572;2023-05-10T03:52:08;51.90;;;22.38;;
74335;SDS011;62755;-33.398;-70.572;2023-05-10T03:54:58;43.90;;;20.23;;
74335;SDS011;62755;-33.398;-70.572;2023-05-10T03:57:48;46.13;;;20.13;;
74335;SDS011;62755;-33.398;-70.572;2023-05-10T04:00:39;43.10;;;21.45;;
74335;SDS011;62755;-33.398;-70.572;2023-05-10T04:03:31;41.33;;;19.35;;
74335;SDS011;62755;-33.398;-70.572;2023-05-10T04:06:22;36.33;;;16.23;;
74335;SDS011;62755;-33.398;-70.572;2023-05-10T04:09:13;31.40;;;16.67;;
74335;SDS011;62755;-33.398;-70.572;2023-05-10T04:12:03;41.65;;;19.60;;
74335;SDS011;62755;-33.398;-70.572;2023-05-10T04:14:53;34.67;;;17.17;;
74335;SDS011;62755;-33.398;-70.572;2023-05-10T04:17:43;34.13;;;17.48;;
74335;SDS011;62755;-33.398;-70.572;2023-05-10T04:20:32;38.05;;;18.15;;
74335;SDS011;62755;-33.398;-70.572;2023-05-10T04:23:22;43.05;;;20.27;;
74335;SDS011;62755;-33.398;-70.572;2023-05-10T04:26:14;39.38;;;20.10;;
74335;SDS011;62755;-33.398;-70.572;2023-05-10T04:29:04;38.20;;;18.80;;
74335;SDS011;62755;-33.398;-70.572;2023-05-10T04:31:54;34.90;;;17.90;;
74335;SDS011;62755;-33.398;-70.572;2023-05-10T04:34:44;31.95;;;16.88;;
74335;SDS011;62755;-33.398;-70.572;2023-05-10T04:37:34;30.88;;;15.38;;
74335;SDS011;62755;-33.398;-70.572;2023-05-10T04:40:23;32.17;;;15.13;;
74335;SDS011;62755;-33.398;-70.572;2023-05-10T04:43:14;34.08;;;16.25;;
74335;SDS011;62755;-33.398;-70.572;2023-05-10T04:46:04;26.98;;;12.85;;
74335;SDS011;62755;-33.398;-70.572;2023-05-10T04:48:54;28.70;;;13.50;;
74335;SDS011;62755;-33.398;-70.572;2023-05-10T04:51:44;23.58;;;11.63;;
74335;SDS011;62755;-33.398;-70.572;2023-05-10T04:54:33;24.27;;;12.32;;
74335;SDS011;62755;-33.398;-70.572;2023-05-10T04:57:23;31.33;;;13.20;;
74335;SDS011;62755;-33.398;-70.572;2023-05-10T05:00:16;32.78;;;14.50;;
74335;SDS011;62755;-33.398;-70.572;2023-05-10T05:03:06;38.60;;;16.40;;
74335;SDS011;62755;-33.398;-70.572;2023-05-10T05:05:56;36.97;;;15.65;;
74335;SDS011;62755;-33.398;-70.572;2023-05-10T05:08:45;42.03;;;19.13;;
74335;SDS011;62755;-33.398;-70.572;2023-05-10T05:11:35;42.58;;;19.10;;
74335;SDS011;62755;-33.398;-70.572;2023-05-10T05:14:26;38.38;;;17.65;;
74335;SDS011;62755;-33.398;-70.572;2023-05-10T05:17:17;39.53;;;17.25;;
74335;SDS011;62755;-33.398;-70.572;2023-05-10T05:20:07;38.42;;;18.80;;
74335;SDS011;62755;-33.398;-70.572;2023-05-10T05:22:57;43.03;;;22.15;;
74335;SDS011;62755;-33.398;-70.572;2023-05-10T05:25:47;38.95;;;20.02;;
74335;SDS011;62755;-33.398;-70.572;2023-05-10T05:28:37;46.78;;;21.25;;
74335;SDS011;62755;-33.398;-70.572;2023-05-10T05:31:26;45.45;;;19.85;;
74335;SDS011;62755;-33.398;-70.572;2023-05-10T05:34:18;44.17;;;18.35;;
74335;SDS011;62755;-33.398;-70.572;2023-05-10T05:37:08;43.70;;;19.70;;
74335;SDS011;62755;-33.398;-70.572;2023-05-10T05:40:02;40.58;;;19.45;;
74335;SDS011;62755;-33.398;-70.572;2023-05-10T05:42:52;42.67;;;17.85;;
74335;SDS011;62755;-33.398;-70.572;2023-05-10T05:45:41;36.83;;;17.33;;
74335;SDS011;62755;-33.398;-70.572;2023-05-10T05:48:31;36.97;;;17.58;;
74335;SDS011;62755;-33.398;-70.572;2023-05-10T05:51:22;39.30;;;16.92;;
74335;SDS011;62755;-33.398;-70.572;2023-05-10T05:54:12;46.60;;;19.48;;
74335;SDS011;62755;-33.398;-70.572;2023-05-10T05:57:02;43.08;;;17.23;;
74335;SDS011;62755;-33.398;-70.572;2023-05-10T05:59:51;44.97;;;18.90;;
74335;SDS011;62755;-33.398;-70.572;2023-05-10T06:02:41;50.20;;;24.75;;
74335;SDS011;62755;-33.398;-70.572;2023-05-10T06:05:30;41.42;;;19.67;;
74335;SDS011;62755;-33.398;-70.572;2023-05-10T06:08:22;39.22;;;18.33;;
74335;SDS011;62755;-33.398;-70.572;2023-05-10T06:11:11;41.45;;;18.65;;
74335;SDS011;62755;-33.398;-70.572;2023-05-10T06:14:01;42.42;;;18.20;;
74335;SDS011;62755;-33.398;-70.572;2023-05-10T06:16:52;43.83;;;19.25;;
74335;SDS011;62755;-33.398;-70.572;2023-05-10T06:19:42;41.55;;;20.15;;
74335;SDS011;62755;-33.398;-70.572;2023-05-10T06:22:32;46.63;;;18.60;;
74335;SDS011;62755;-33.398;-70.572;2023-05-10T06:25:23;41.47;;;19.58;;
74335;SDS011;62755;-33.398;-70.572;2023-05-10T06:28:13;50.22;;;19.67;;
74335;SDS011;62755;-33.398;-70.572;2023-05-10T06:31:02;36.22;;;17.95;;
74335;SDS011;62755;-33.398;-70.572;2023-05-10T06:33:52;37.65;;;15.75;;
74335;SDS011;62755;-33.398;-70.572;2023-05-10T06:36:42;33.88;;;16.38;;
74335;SDS011;62755;-33.398;-70.572;2023-05-10T06:39:31;49.50;;;19.23;;
74335;SDS011;62755;-33.398;-70.572;2023-05-10T06:42:23;57.40;;;19.95;;
74335;SDS011;62755;-33.398;-70.572;2023-05-10T06:45:13;42.70;;;20.80;;
74335;SDS011;62755;-33.398;-70.572;2023-05-10T06:48:03;38.47;;;18.70;;
74335;SDS011;62755;-33.398;-70.572;2023-05-10T06:50:53;37.28;;;17.65;;
74335;SDS011;62755;-33.398;-70.572;2023-05-10T06:53:42;46.03;;;20.55;;
74335;SDS011;62755;-33.398;-70.572;2023-05-10T06:56:32;46.88;;;20.10;;
74335;SDS011;62755;-33.398;-70.572;2023-05-10T06:59:23;46.72;;;20.38;;
74335;SDS011;62755;-33.398;-70.572;2023-05-10T07:02:13;49.67;;;19.17;;
74335;SDS011;62755;-33.398;-70.572;2023-05-10T07:05:02;53.45;;;22.05;;
74335;SDS011;62755;-33.398;-70.572;2023-05-10T07:07:52;41.00;;;19.27;;
74335;SDS011;62755;-33.398;-70.572;2023-05-10T07:10:42;39.40;;;17.00;;
74335;SDS011;62755;-33.398;-70.572;2023-05-10T07:13:32;33.25;;;14.85;;
74335;SDS011;62755;-33.398;-70.572;2023-05-10T07:16:24;30.63;;;12.80;;
74335;SDS011;62755;-33.398;-70.572;2023-05-10T07:19:13;31.75;;;13.93;;
74335;SDS011;62755;-33.398;-70.572;2023-05-10T07:22:03;28.92;;;13.82;;
74335;SDS011;62755;-33.398;-70.572;2023-05-10T07:24:52;30.65;;;14.55;;
74335;SDS011;62755;-33.398;-70.572;2023-05-10T07:27:42;31.95;;;15.13;;
74335;SDS011;62755;-33.398;-70.572;2023-05-10T07:30:34;34.78;;;14.75;;
74335;SDS011;62755;-33.398;-70.572;2023-05-10T07:33:25;36.28;;;15.15;;
74335;SDS011;62755;-33.398;-70.572;2023-05-10T07:36:15;29.77;;;15.27;;
74335;SDS011;62755;-33.398;-70.572;2023-05-10T07:39:04;38.75;;;14.45;;
74335;SDS011;62755;-33.398;-70.572;2023-05-10T07:41:54;26.13;;;13.43;;
74335;SDS011;62755;-33.398;-70.572;2023-05-10T07:44:44;34.10;;;12.73;;
74335;SDS011;62755;-33.398;-70.572;2023-05-10T07:47:33;22.48;;;10.23;;
74335;SDS011;62755;-33.398;-70.572;2023-05-10T07:50:25;22.15;;;9.18;;
74335;SDS011;62755;-33.398;-70.572;2023-05-10T07:53:14;20.08;;;9.57;;
74335;SDS011;62755;-33.398;-70.572;2023-05-10T07:59:09;24.00;;;12.65;;
74335;SDS011;62755;-33.398;-70.572;2023-05-10T08:02:02;27.85;;;13.52;;
74335;SDS011;62755;-33.398;-70.572;2023-05-10T08:04:52;32.35;;;14.18;;
74335;SDS011;62755;-33.398;-70.572;2023-05-10T08:07:43;36.45;;;14.13;;
74335;SDS011;62755;-33.398;-70.572;2023-05-10T08:10:33;33.17;;;14.55;;
74335;SDS011;62755;-33.398;-70.572;2023-05-10T08:13:23;34.08;;;14.20;;
74335;SDS011;62755;-33.398;-70.572;2023-05-10T08:16:12;35.67;;;14.98;;
74335;SDS011;62755;-33.398;-70.572;2023-05-10T08:19:02;32.53;;;14.35;;
74335;SDS011;62755;-33.398;-70.572;2023-05-10T08:21:52;30.35;;;13.27;;
74335;SDS011;62755;-33.398;-70.572;2023-05-10T08:24:44;32.70;;;12.52;;
74335;SDS011;62755;-33.398;-70.572;2023-05-10T08:27:33;29.95;;;12.32;;
74335;SDS011;62755;-33.398;-70.572;2023-05-10T08:30:23;24.33;;;10.88;;
74335;SDS011;62755;-33.398;-70.572;2023-05-10T08:33:13;26.83;;;12.45;;
74335;SDS011;62755;-33.398;-70.572;2023-05-10T08:36:02;29.05;;;12.73;;
74335;SDS011;62755;-33.398;-70.572;2023-05-10T08:38:52;27.42;;;12.40;;
74335;SDS011;62755;-33.398;-70.572;2023-05-10T08:41:45;27.00;;;12.98;;
74335;SDS011;62755;-33.398;-70.572;2023-05-10T08:44:36;39.30;;;14.88;;
74335;SDS011;62755;-33.398;-70.572;2023-05-10T08:47:26;27.55;;;13.65;;
74335;SDS011;62755;-33.398;-70.572;2023-05-10T08:50:16;32.10;;;14.20;;
74335;SDS011;62755;-33.398;-70.572;2023-05-10T08:53:09;34.35;;;14.88;;
74335;SDS011;62755;-33.398;-70.572;2023-05-10T08:56:00;34.45;;;13.77;;
74335;SDS011;62755;-33.398;-70.572;2023-05-10T08:58:52;37.80;;;14.13;;
74335;SDS011;62755;-33.398;-70.572;2023-05-10T09:01:42;31.52;;;13.10;;
74335;SDS011;62755;-33.398;-70.572;2023-05-10T09:04:34;34.28;;;12.60;;
74335;SDS011;62755;-33.398;-70.572;2023-05-10T09:07:23;30.70;;;12.40;;
74335;SDS011;62755;-33.398;-70.572;2023-05-10T09:10:13;28.40;;;12.18;;
74335;SDS011;62755;-33.398;-70.572;2023-05-10T09:13:03;30.80;;;10.35;;
74335;SDS011;62755;-33.398;-70.572;2023-05-10T09:15:55;20.77;;;9.55;;
74335;SDS011;62755;-33.398;-70.572;2023-05-10T09:18:45;24.17;;;7.40;;
74335;SDS011;62755;-33.398;-70.572;2023-05-10T09:21:35;17.63;;;6.75;;
74335;SDS011;62755;-33.398;-70.572;2023-05-10T09:24:26;21.92;;;7.53;;
74335;SDS011;62755;-33.398;-70.572;2023-05-10T09:27:15;18.40;;;7.65;;
74335;SDS011;62755;-33.398;-70.572;2023-05-10T09:30:06;21.88;;;7.30;;
74335;SDS011;62755;-33.398;-70.572;2023-05-10T09:32:58;14.20;;;6.35;;
74335;SDS011;62755;-33.398;-70.572;2023-05-10T09:35:48;14.18;;;4.82;;
74335;SDS011;62755;-33.398;-70.572;2023-05-10T09:38:47;13.38;;;5.68;;
74335;SDS011;62755;-33.398;-70.572;2023-05-10T09:41:37;11.13;;;5.10;;
74335;SDS011;62755;-33.398;-70.572;2023-05-10T09:44:30;9.75;;;4.80;;
74335;SDS011;62755;-33.398;-70.572;2023-05-10T09:47:20;19.60;;;6.88;;
74335;SDS011;62755;-33.398;-70.572;2023-05-10T09:50:12;17.48;;;8.55;;
74335;SDS011;62755;-33.398;-70.572;2023-05-10T09:53:02;20.67;;;7.70;;
74335;SDS011;62755;-33.398;-70.572;2023-05-10T09:55:52;17.35;;;6.40;;
74335;SDS011;62755;-33.398;-70.572;2023-05-10T09:58:42;13.63;;;5.43;;
74335;SDS011;62755;-33.398;-70.572;2023-05-10T10:01:32;14.43;;;5.75;;
74335;SDS011;62755;-33.398;-70.572;2023-05-10T10:04:22;11.60;;;4.80;;
74335;SDS011;62755;-33.398;-70.572;2023-05-10T10:07:14;15.57;;;6.10;;
74335;SDS011;62755;-33.398;-70.572;2023-05-10T10:10:10;13.68;;;5.88;;
74335;SDS011;62755;-33.398;-70.572;2023-05-10T10:13:01;16.02;;;5.75;;
74335;SDS011;62755;-33.398;-70.572;2023-05-10T10:15:51;12.88;;;5.10;;
74335;SDS011;62755;-33.398;-70.572;2023-05-10T10:18:42;9.40;;;4.93;;
74335;SDS011;62755;-33.398;-70.572;2023-05-10T10:21:32;10.20;;;5.50;;
74335;SDS011;62755;-33.398;-70.572;2023-05-10T10:24:24;14.35;;;5.15;;
74335;SDS011;62755;-33.398;-70.572;2023-05-10T10:27:16;11.63;;;3.85;;
74335;SDS011;62755;-33.398;-70.572;2023-05-10T10:30:15;13.65;;;4.20;;
74335;SDS011;62755;-33.398;-70.572;2023-05-10T10:36:27;13.40;;;6.05;;
74335;SDS011;62755;-33.398;-70.572;2023-05-10T10:39:19;18.48;;;7.22;;
74335;SDS011;62755;-33.398;-70.572;2023-05-10T10:42:13;19.65;;;7.07;;
74335;SDS011;62755;-33.398;-70.572;2023-05-10T10:45:13;17.67;;;8.20;;
74335;SDS011;62755;-33.398;-70.572;2023-05-10T10:51:13;30.30;;;10.40;;
74335;SDS011;62755;-33.398;-70.572;2023-05-10T10:54:08;22.02;;;10.13;;
74335;SDS011;62755;-33.398;-70.572;2023-05-10T10:57:13;28.60;;;11.73;;
74335;SDS011;62755;-33.398;-70.572;2023-05-10T11:00:22;27.40;;;11.45;;
74335;SDS011;62755;-33.398;-70.572;2023-05-10T11:03:13;28.48;;;10.45;;
74335;SDS011;62755;-33.398;-70.572;2023-05-10T11:06:04;25.00;;;10.35;;
74335;SDS011;62755;-33.398;-70.572;2023-05-10T11:08:55;26.52;;;11.25;;
74335;SDS011;62755;-33.398;-70.572;2023-05-10T11:11:51;24.02;;;9.23;;
74335;SDS011;62755;-33.398;-70.572;2023-05-10T11:14:45;20.17;;;8.57;;
74335;SDS011;62755;-33.398;-70.572;2023-05-10T11:17:39;16.65;;;5.78;;
74335;SDS011;62755;-33.398;-70.572;2023-05-10T11:20:38;12.43;;;5.05;;
74335;SDS011;62755;-33.398;-70.572;2023-05-10T11:23:31;10.23;;;3.55;;
74335;SDS011;62755;-33.398;-70.572;2023-05-10T11:26:21;8.35;;;2.70;;
74335;SDS011;62755;-33.398;-70.572;2023-05-10T11:29:12;6.47;;;3.42;;
74335;SDS011;62755;-33.398;-70.572;2023-05-10T11:32:03;6.53;;;2.78;;
74335;SDS011;62755;-33.398;-70.572;2023-05-10T11:34:54;11.70;;;3.08;;
74335;SDS011;62755;-33.398;-70.572;2023-05-10T11:37:43;5.93;;;2.38;;
74335;SDS011;62755;-33.398;-70.572;2023-05-10T11:40:37;13.77;;;3.50;;
74335;SDS011;62755;-33.398;-70.572;2023-05-10T11:43:28;10.73;;;4.07;;
74335;SDS011;62755;-33.398;-70.572;2023-05-10T11:46:18;14.23;;;4.57;;
74335;SDS011;62755;-33.398;-70.572;2023-05-10T11:49:10;12.45;;;3.50;;
74335;SDS011;62755;-33.398;-70.572;2023-05-10T11:52:06;12.43;;;3.85;;
74335;SDS011;62755;-33.398;-70.572;2023-05-10T11:54:57;14.45;;;2.88;;
74335;SDS011;62755;-33.398;-70.572;2023-05-10T11:57:46;7.68;;;2.80;;
74335;SDS011;62755;-33.398;-70.572;2023-05-10T12:00:39;12.65;;;2.45;;
74335;SDS011;62755;-33.398;-70.572;2023-05-10T12:03:29;5.95;;;2.35;;
74335;SDS011;62755;-33.398;-70.572;2023-05-10T12:06:21;7.80;;;2.00;;
74335;SDS011;62755;-33.398;-70.572;2023-05-10T12:09:10;9.45;;;2.10;;
74335;SDS011;62755;-33.398;-70.572;2023-05-10T12:12:00;12.85;;;3.15;;
74335;SDS011;62755;-33.398;-70.572;2023-05-10T12:14:51;14.75;;;3.97;;
74335;SDS011;62755;-33.398;-70.572;2023-05-10T12:17:40;26.30;;;3.97;;
74335;SDS011;62755;-33.398;-70.572;2023-05-10T12:20:31;18.35;;;3.20;;
74335;SDS011;62755;-33.398;-70.572;2023-05-10T12:23:23;13.85;;;3.20;;
74335;SDS011;62755;-33.398;-70.572;2023-05-10T12:26:14;13.80;;;4.03;;
74335;SDS011;62755;-33.398;-70.572;2023-05-10T12:29:13;9.80;;;3.45;;
74335;SDS011;62755;-33.398;-70.572;2023-05-10T12:32:04;17.73;;;7.80;;
74335;SDS011;62755;-33.398;-70.572;2023-05-10T12:34:54;18.80;;;7.53;;
74335;SDS011;62755;-33.398;-70.572;2023-05-10T12:37:45;28.17;;;10.30;;
74335;SDS011;62755;-33.398;-70.572;2023-05-10T12:40:37;32.58;;;13.30;;
74335;SDS011;62755;-33.398;-70.572;2023-05-10T12:43:26;38.20;;;15.38;;
74335;SDS011;62755;-33.398;-70.572;2023-05-10T12:46:16;48.22;;;20.08;;
74335;SDS011;62755;-33.398;-70.572;2023-05-10T12:49:06;50.83;;;22.65;;
74335;SDS011;62755;-33.398;-70.572;2023-05-10T12:51:56;50.95;;;23.13;;
74335;SDS011;62755;-33.398;-70.572;2023-05-10T12:54:46;59.50;;;24.20;;
74335;SDS011;62755;-33.398;-70.572;2023-05-10T12:57:37;43.95;;;19.95;;
74335;SDS011;62755;-33.398;-70.572;2023-05-10T13:00:26;50.50;;;22.75;;
74335;SDS011;62755;-33.398;-70.572;2023-05-10T13:03:16;40.88;;;20.50;;
74335;SDS011;62755;-33.398;-70.572;2023-05-10T13:06:06;37.92;;;18.52;;
74335;SDS011;62755;-33.398;-70.572;2023-05-10T13:08:55;45.83;;;20.95;;
74335;SDS011;62755;-33.398;-70.572;2023-05-10T13:11:45;36.00;;;16.48;;
74335;SDS011;62755;-33.398;-70.572;2023-05-10T13:14:36;36.80;;;16.77;;
74335;SDS011;62755;-33.398;-70.572;2023-05-10T13:17:26;41.45;;;15.43;;
74335;SDS011;62755;-33.398;-70.572;2023-05-10T13:20:15;41.30;;;16.73;;
74335;SDS011;62755;-33.398;-70.572;2023-05-10T13:23:05;41.53;;;15.23;;
74335;SDS011;62755;-33.398;-70.572;2023-05-10T13:25:55;40.60;;;15.23;;
74335;SDS011;62755;-33.398;-70.572;2023-05-10T13:28:44;37.60;;;15.88;;
74335;SDS011;62755;-33.398;-70.572;2023-05-10T13:31:36;30.05;;;11.75;;
74335;SDS011;62755;-33.398;-70.572;2023-05-10T13:34:26;53.33;;;14.45;;
74335;SDS011;62755;-33.398;-70.572;2023-05-10T13:37:16;49.92;;;14.57;;
74335;SDS011;62755;-33.398;-70.572;2023-05-10T13:40:06;46.03;;;14.75;;
74335;SDS011;62755;-33.398;-70.572;2023-05-10T13:42:56;60.88;;;14.52;;
74335;SDS011;62755;-33.398;-70.572;2023-05-10T13:45:46;42.53;;;14.32;;
74335;SDS011;62755;-33.398;-70.572;2023-05-10T13:48:37;36.83;;;13.52;;
74335;SDS011;62755;-33.398;-70.572;2023-05-10T13:51:26;33.65;;;12.95;;
74335;SDS011;62755;-33.398;-70.572;2023-05-10T13:54:17;38.90;;;12.60;;
74335;SDS011;62755;-33.398;-70.572;2023-05-10T13:57:08;42.45;;;12.50;;
74335;SDS011;62755;-33.398;-70.572;2023-05-10T13:59:59;29.02;;;10.32;;
74335;SDS011;62755;-33.398;-70.572;2023-05-10T14:02:49;22.00;;;8.93;;
74335;SDS011;62755;-33.398;-70.572;2023-05-10T14:05:40;35.38;;;10.57;;
74335;SDS011;62755;-33.398;-70.572;2023-05-10T14:08:30;30.15;;;9.88;;
74335;SDS011;62755;-33.398;-70.572;2023-05-10T14:11:20;28.88;;;10.38;;
74335;SDS011;62755;-33.398;-70.572;2023-05-10T14:14:10;34.25;;;14.52;;
74335;SDS011;62755;-33.398;-70.572;2023-05-10T14:17:00;31.88;;;12.63;;
74335;SDS011;62755;-33.398;-70.572;2023-05-10T14:19:49;28.17;;;12.30;;
74335;SDS011;62755;-33.398;-70.572;2023-05-10T14:22:40;40.17;;;12.82;;
74335;SDS011;62755;-33.398;-70.572;2023-05-10T14:25:30;36.63;;;13.70;;
74335;SDS011;62755;-33.398;-70.572;2023-05-10T14:28:20;42.10;;;15.40;;
74335;SDS011;62755;-33.398;-70.572;2023-05-10T14:31:10;49.95;;;16.13;;
74335;SDS011;62755;-33.398;-70.572;2023-05-10T14:34:00;43.63;;;17.17;;
74335;SDS011;62755;-33.398;-70.572;2023-05-10T14:36:50;63.97;;;18.88;;
74335;SDS011;62755;-33.398;-70.572;2023-05-10T14:39:41;51.72;;;19.40;;
74335;SDS011;62755;-33.398;-70.572;2023-05-10T14:42:31;54.88;;;19.80;;
74335;SDS011;62755;-33.398;-70.572;2023-05-10T14:45:23;53.53;;;20.05;;
74335;SDS011;62755;-33.398;-70.572;2023-05-10T14:48:12;64.55;;;21.55;;
74335;SDS011;62755;-33.398;-70.572;2023-05-10T14:51:03;60.67;;;20.38;;
74335;SDS011;62755;-33.398;-70.572;2023-05-10T14:53:53;60.08;;;20.42;;
74335;SDS011;62755;-33.398;-70.572;2023-05-10T14:56:44;68.85;;;24.13;;
74335;SDS011;62755;-33.398;-70.572;2023-05-10T14:59:35;60.88;;;22.65;;
74335;SDS011;62755;-33.398;-70.572;2023-05-10T15:02:25;62.92;;;22.75;;
74335;SDS011;62755;-33.398;-70.572;2023-05-10T15:05:14;76.38;;;25.13;;
74335;SDS011;62755;-33.398;-70.572;2023-05-10T15:08:04;51.25;;;23.40;;
74335;SDS011;62755;-33.398;-70.572;2023-05-10T15:10:55;62.03;;;26.13;;
74335;SDS011;62755;-33.398;-70.572;2023-05-10T15:13:46;57.50;;;24.67;;
74335;SDS011;62755;-33.398;-70.572;2023-05-10T15:16:35;56.92;;;26.45;;
74335;SDS011;62755;-33.398;-70.572;2023-05-10T15:19:25;64.57;;;27.95;;
74335;SDS011;62755;-33.398;-70.572;2023-05-10T15:22:15;56.92;;;25.92;;
74335;SDS011;62755;-33.398;-70.572;2023-05-10T15:25:05;62.72;;;26.58;;
74335;SDS011;62755;-33.398;-70.572;2023-05-10T15:27:55;61.13;;;27.63;;
74335;SDS011;62755;-33.398;-70.572;2023-05-10T15:30:46;59.88;;;26.25;;
74335;SDS011;62755;-33.398;-70.572;2023-05-10T15:33:36;73.85;;;29.05;;
74335;SDS011;62755;-33.398;-70.572;2023-05-10T15:36:26;67.22;;;28.90;;
74335;SDS011;62755;-33.398;-70.572;2023-05-10T15:39:15;65.68;;;29.17;;
74335;SDS011;62755;-33.398;-70.572;2023-05-10T15:42:05;67.25;;;29.17;;
74335;SDS011;62755;-33.398;-70.572;2023-05-10T15:44:55;74.72;;;28.98;;
74335;SDS011;62755;-33.398;-70.572;2023-05-10T15:47:46;60.10;;;28.27;;
74335;SDS011;62755;-33.398;-70.572;2023-05-10T15:50:35;68.82;;;28.77;;
74335;SDS011;62755;-33.398;-70.572;2023-05-10T15:53:26;69.20;;;28.58;;
74335;SDS011;62755;-33.398;-70.572;2023-05-10T15:56:15;67.43;;;28.10;;
74335;SDS011;62755;-33.398;-70.572;2023-05-10T15:59:05;61.70;;;28.85;;
74335;SDS011;62755;-33.398;-70.572;2023-05-10T16:01:56;71.47;;;31.80;;
74335;SDS011;62755;-33.398;-70.572;2023-05-10T16:04:48;68.60;;;29.65;;
74335;SDS011;62755;-33.398;-70.572;2023-05-10T16:07:37;64.30;;;29.20;;
74335;SDS011;62755;-33.398;-70.572;2023-05-10T16:10:30;73.32;;;31.23;;